sensor_id;sensor_type;location;lat;lon;timestamp;pressure;altitude;pressure_sealevel;temperature;humidity
13709;BME280;54933;51.908;7.730;2024-01-30T00:00:02;102096.81;;;20.55;60.12
13709;BME280;54933;51.908;7.730;2024-01-30T00:02:28;102084.19;;;20.55;60.10
13709;BME280;54933;51.908;7.730;2024-01-30T00:04:53;102082.47;;;20.54;60.23
13709;BME280;54933;51.908;7.730;2024-01-30T00:07:18;102081.47;;;20.55;60.08
13709;BME280;54933;51.908;7.730;2024-01-30T00:09:46;102082.31;;;20.56;60.10
13709;BME280;54933;51.908;7.730;2024-01-30T00:12:12;102082.31;;;20.56;60.23
13709;BME280;54933;51.908;7.730;2024-01-30T00:14:37;102079.63;;;20.56;59.88
13709;BME280;54933;51.908;7.730;2024-01-30T00:17:02;102081.47;;;20.55;60.20
13709;BME280;54933;51.908;7.730;2024-01-30T00:19:31;102088.53;;;20.56;60.12
13709;BME280;54933;51.908;7.730;2024-01-30T00:21:57;102084.19;;;20.55;59.98
13709;BME280;54933;51.908;7.730;2024-01-30T00:24:22;102082.31;;;20.56;60.11
13709;BME280;54933;51.908;7.730;2024-01-30T00:26:47;102084.19;;;20.55;59.95
13709;BME280;54933;51.908;7.730;2024-01-30T00:29:12;102086.88;;;20.55;60.10
13709;BME280;54933;51.908;7.730;2024-01-30T00:31:44;102080.44;;;20.56;59.93
13709;BME280;54933;51.908;7.730;2024-01-30T00:34:09;102078.59;;;20.57;60.07
13709;BME280;54933;51.908;7.730;2024-01-30T00:36:34;102077.75;;;20.56;59.96
13709;BME280;54933;51.908;7.730;2024-01-30T00:38:59;102078.59;;;20.57;59.86
13709;BME280;54933;51.908;7.730;2024-01-30T00:41:25;102076.75;;;20.57;59.95
13709;BME280;54933;51.908;7.730;2024-01-30T00:43:50;102075.03;;;20.56;59.94
13709;BME280;54933;51.908;7.730;2024-01-30T00:46:15;102070.50;;;20.57;59.94
13709;BME280;54933;51.908;7.730;2024-01-30T00:48:40;102069.63;;;20.56;59.82
13709;BME280;54933;51.908;7.730;2024-01-30T00:51:06;102069.63;;;20.56;59.82
13709;BME280;54933;51.908;7.730;2024-01-30T00:53:31;102074.03;;;20.57;59.91
13709;BME280;54933;51.908;7.730;2024-01-30T00:55:56;102072.34;;;20.56;59.78
13709;BME280;54933;51.908;7.730;2024-01-30T00:58:22;102063.22;;;20.57;59.79
13709;BME280;54933;51.908;7.730;2024-01-30T01:00:47;102073.19;;;20.57;59.65
13709;BME280;54933;51.908;7.730;2024-01-30T01:03:12;102067.78;;;20.57;59.60
13709;BME280;54933;51.908;7.730;2024-01-30T01:05:39;102071.34;;;20.57;59.69
13709;BME280;54933;51.908;7.730;2024-01-30T01:08:04;102062.38;;;20.57;59.78
13709;BME280;54933;51.908;7.730;2024-01-30T01:10:29;102060.53;;;20.57;59.56
13709;BME280;54933;51.908;7.730;2024-01-30T01:12:55;102068.63;;;20.57;59.79
13709;BME280;54933;51.908;7.730;2024-01-30T01:15:20;102057.84;;;20.57;59.68
13709;BME280;54933;51.908;7.730;2024-01-30T01:17:45;102057.84;;;20.57;59.66
13709;BME280;54933;51.908;7.730;2024-01-30T01:20:11;102060.53;;;20.57;59.37
13709;BME280;54933;51.908;7.730;2024-01-30T01:22:37;102060.53;;;20.57;59.70
13709;BME280;54933;51.908;7.730;2024-01-30T01:25:04;102056.97;;;20.57;59.79
13709;BME280;54933;51.908;7.730;2024-01-30T01:27:32;102054.09;;;20.58;59.62
13709;BME280;54933;51.908;7.730;2024-01-30T01:29:58;102064.91;;;20.58;59.66
13709;BME280;54933;51.908;7.730;2024-01-30T01:32:23;102054.28;;;20.57;59.96
13709;BME280;54933;51.908;7.730;2024-01-30T01:34:48;102067.59;;;20.58;59.64
13709;BME280;54933;51.908;7.730;2024-01-30T01:37:13;102058.66;;;20.58;59.79
13709;BME280;54933;51.908;7.730;2024-01-30T01:39:39;102052.44;;;20.57;59.85
13709;BME280;54933;51.908;7.730;2024-01-30T01:42:04;102057.84;;;20.57;59.67
13709;BME280;54933;51.908;7.730;2024-01-30T01:44:29;102058.47;;;20.59;59.71
13709;BME280;54933;51.908;7.730;2024-01-30T01:46:55;102057.84;;;20.57;59.69
13709;BME280;54933;51.908;7.730;2024-01-30T01:49:24;102052.44;;;20.57;59.74
13709;BME280;54933;51.908;7.730;2024-01-30T01:51:51;102054.09;;;20.58;59.81
13709;BME280;54933;51.908;7.730;2024-01-30T01:54:18;102059.50;;;20.58;59.58
13709;BME280;54933;51.908;7.730;2024-01-30T01:56:44;102057.84;;;20.57;59.66
13709;BME280;54933;51.908;7.730;2024-01-30T01:59:09;102047.84;;;20.58;59.72
13709;BME280;54933;51.908;7.730;2024-01-30T02:01:38;102051.59;;;20.57;59.55
13709;BME280;54933;51.908;7.730;2024-01-30T02:04:07;102052.44;;;20.57;59.61
13709;BME280;54933;51.908;7.730;2024-01-30T02:06:33;102042.44;;;20.58;59.65
13709;BME280;54933;51.908;7.730;2024-01-30T02:08:59;102036.22;;;20.57;59.58
13709;BME280;54933;51.908;7.730;2024-01-30T02:11:24;102030.81;;;20.57;59.65
13709;BME280;54933;51.908;7.730;2024-01-30T02:13:50;102037.91;;;20.58;59.66
13709;BME280;54933;51.908;7.730;2024-01-30T02:16:15;102028.94;;;20.58;59.56
13709;BME280;54933;51.908;7.730;2024-01-30T02:18:42;102026.25;;;20.58;59.54
13709;BME280;54933;51.908;7.730;2024-01-30T02:21:10;102022.72;;;20.57;59.70
13709;BME280;54933;51.908;7.730;2024-01-30T02:23:36;102020.03;;;20.57;59.78
13709;BME280;54933;51.908;7.730;2024-01-30T02:26:01;102016.28;;;20.58;59.64
13709;BME280;54933;51.908;7.730;2024-01-30T02:28:27;102017.31;;;20.57;59.68
13709;BME280;54933;51.908;7.730;2024-01-30T02:30:54;102020.03;;;20.57;59.72
13709;BME280;54933;51.908;7.730;2024-01-30T02:33:20;102019.00;;;20.58;59.69
13709;BME280;54933;51.908;7.730;2024-01-30T02:35:47;102007.53;;;20.56;59.57
13709;BME280;54933;51.908;7.730;2024-01-30T02:38:12;102015.44;;;20.58;59.68
13709;BME280;54933;51.908;7.730;2024-01-30T02:40:37;102015.44;;;20.58;59.60
13709;BME280;54933;51.908;7.730;2024-01-30T02:43:03;102009.22;;;20.57;59.58
13709;BME280;54933;51.908;7.730;2024-01-30T02:45:29;102009.22;;;20.57;59.58
13709;BME280;54933;51.908;7.730;2024-01-30T02:47:54;102010.03;;;20.58;59.65
13709;BME280;54933;51.908;7.730;2024-01-30T02:50:19;102001.13;;;20.57;59.39
13709;BME280;54933;51.908;7.730;2024-01-30T02:52:48;102000.09;;;20.58;59.62
13709;BME280;54933;51.908;7.730;2024-01-30T02:55:13;102002.97;;;20.57;59.57
13709;BME280;54933;51.908;7.730;2024-01-30T02:57:39;102002.97;;;20.57;59.62
13709;BME280;54933;51.908;7.730;2024-01-30T03:00:05;102000.28;;;20.57;59.68
13709;BME280;54933;51.908;7.730;2024-01-30T03:02:32;101994.03;;;20.56;59.37
13709;BME280;54933;51.908;7.730;2024-01-30T03:04:57;101995.91;;;20.56;59.38
13709;BME280;54933;51.908;7.730;2024-01-30T03:07:22;101995.06;;;20.55;59.68
13709;BME280;54933;51.908;7.730;2024-01-30T03:09:47;101991.50;;;20.55;59.85
13709;BME280;54933;51.908;7.730;2024-01-30T03:12:13;101987.97;;;20.54;59.71
13709;BME280;54933;51.908;7.730;2024-01-30T03:14:38;101992.56;;;20.54;59.75
13709;BME280;54933;51.908;7.730;2024-01-30T03:17:04;101975.50;;;20.53;59.83
13709;BME280;54933;51.908;7.730;2024-01-30T03:19:29;101980.06;;;20.53;59.74
13709;BME280;54933;51.908;7.730;2024-01-30T03:21:54;101974.66;;;20.53;59.67
13709;BME280;54933;51.908;7.730;2024-01-30T03:24:19;101977.53;;;20.51;59.87
13709;BME280;54933;51.908;7.730;2024-01-30T03:26:45;101973.84;;;20.52;59.54
13709;BME280;54933;51.908;7.730;2024-01-30T03:29:10;101964.03;;;20.51;59.74
13709;BME280;54933;51.908;7.730;2024-01-30T03:31:36;101967.59;;;20.52;60.00
13709;BME280;54933;51.908;7.730;2024-01-30T03:34:01;101971.13;;;20.52;59.74
13709;BME280;54933;51.908;7.730;2024-01-30T03:36:27;101968.44;;;20.52;59.60
13709;BME280;54933;51.908;7.730;2024-01-30T03:38:52;101963.03;;;20.52;59.92
13709;BME280;54933;51.908;7.730;2024-01-30T03:41:18;101956.97;;;20.50;59.76
13709;BME280;54933;51.908;7.730;2024-01-30T03:43:43;101955.13;;;20.51;59.84
13709;BME280;54933;51.908;7.730;2024-01-30T03:46:08;101957.63;;;20.52;60.08
13709;BME280;54933;51.908;7.730;2024-01-30T03:48:34;101953.22;;;20.51;59.86
13709;BME280;54933;51.908;7.730;2024-01-30T03:50:59;101956.78;;;20.52;59.75
13709;BME280;54933;51.908;7.730;2024-01-30T03:53:24;101944.13;;;20.52;59.78
13709;BME280;54933;51.908;7.730;2024-01-30T03:55:49;101944.31;;;20.51;59.83
13709;BME280;54933;51.908;7.730;2024-01-30T03:58:15;101945.13;;;20.51;59.69
13709;BME280;54933;51.908;7.730;2024-01-30T04:00:40;101939.72;;;20.51;59.85
13709;BME280;54933;51.908;7.730;2024-01-30T04:03:06;101944.31;;;20.51;59.83
13709;BME280;54933;51.908;7.730;2024-01-30T04:05:31;101945.13;;;20.51;59.84
13709;BME280;54933;51.908;7.730;2024-01-30T04:07:57;101950.53;;;20.51;59.63
13709;BME280;54933;51.908;7.730;2024-01-30T04:10:22;101940.59;;;20.52;59.71
13709;BME280;54933;51.908;7.730;2024-01-30T04:12:48;101944.31;;;20.51;59.93
13709;BME280;54933;51.908;7.730;2024-01-30T04:15:13;101939.72;;;20.51;59.84
13709;BME280;54933;51.908;7.730;2024-01-30T04:17:39;101944.31;;;20.51;59.68
13709;BME280;54933;51.908;7.730;2024-01-30T04:20:05;101936.22;;;20.51;59.57
13709;BME280;54933;51.908;7.730;2024-01-30T04:22:30;101940.78;;;20.50;59.68
13709;BME280;54933;51.908;7.730;2024-01-30T04:24:56;101938.06;;;20.50;59.74
13709;BME280;54933;51.908;7.730;2024-01-30T04:27:21;101940.78;;;20.50;59.85
13709;BME280;54933;51.908;7.730;2024-01-30T04:29:46;101943.47;;;20.50;59.83
13709;BME280;54933;51.908;7.730;2024-01-30T04:32:12;101938.91;;;20.51;59.70
13709;BME280;54933;51.908;7.730;2024-01-30T04:34:38;101929.13;;;20.50;59.79
13709;BME280;54933;51.908;7.730;2024-01-30T04:37:03;101933.50;;;20.51;59.76
13709;BME280;54933;51.908;7.730;2024-01-30T04:39:28;101939.72;;;20.51;59.84
13709;BME280;54933;51.908;7.730;2024-01-30T04:41:54;101934.53;;;20.50;59.77
13709;BME280;54933;51.908;7.730;2024-01-30T04:44:19;101932.66;;;20.50;59.85
13709;BME280;54933;51.908;7.730;2024-01-30T04:46:44;101934.53;;;20.50;59.58
13709;BME280;54933;51.908;7.730;2024-01-30T04:49:10;101931.81;;;20.50;59.85
13709;BME280;54933;51.908;7.730;2024-01-30T04:51:35;101936.38;;;20.49;60.00
13709;BME280;54933;51.908;7.730;2024-01-30T04:54:00;101924.75;;;20.49;59.71
13709;BME280;54933;51.908;7.730;2024-01-30T04:56:26;101925.56;;;20.49;59.82
13709;BME280;54933;51.908;7.730;2024-01-30T04:58:51;101932.84;;;20.49;59.71
13709;BME280;54933;51.908;7.730;2024-01-30T05:01:17;101936.38;;;20.49;59.75
13709;BME280;54933;51.908;7.730;2024-01-30T05:03:42;101929.13;;;20.50;59.92
13709;BME280;54933;51.908;7.730;2024-01-30T05:06:07;101925.56;;;20.49;59.86
13709;BME280;54933;51.908;7.730;2024-01-30T05:08:32;101925.56;;;20.49;59.71
13709;BME280;54933;51.908;7.730;2024-01-30T05:11:01;101925.56;;;20.49;59.49
13709;BME280;54933;51.908;7.730;2024-01-30T05:13:28;101935.56;;;20.49;60.11
13709;BME280;54933;51.908;7.730;2024-01-30T05:15:53;101923.91;;;20.48;59.82
13709;BME280;54933;51.908;7.730;2024-01-30T05:18:19;101930.16;;;20.49;59.69
13709;BME280;54933;51.908;7.730;2024-01-30T05:20:44;101921.22;;;20.48;59.76
13709;BME280;54933;51.908;7.730;2024-01-30T05:23:09;101925.56;;;20.49;59.74
13709;BME280;54933;51.908;7.730;2024-01-30T05:25:34;101934.72;;;20.48;59.87
13709;BME280;54933;51.908;7.730;2024-01-30T05:28:00;101925.56;;;20.49;59.71
13709;BME280;54933;51.908;7.730;2024-01-30T05:30:25;101922.88;;;20.49;59.78
13709;BME280;54933;51.908;7.730;2024-01-30T05:32:50;101921.22;;;20.48;59.75
13709;BME280;54933;51.908;7.730;2024-01-30T05:35:15;101918.50;;;20.48;59.79
13709;BME280;54933;51.908;7.730;2024-01-30T05:37:41;101920.53;;;20.46;59.83
13709;BME280;54933;51.908;7.730;2024-01-30T05:40:06;101928.66;;;20.46;59.99
13709;BME280;54933;51.908;7.730;2024-01-30T05:42:33;101917.84;;;20.46;59.86
13709;BME280;54933;51.908;7.730;2024-01-30T05:44:58;101912.81;;;20.43;59.99
13709;BME280;54933;51.908;7.730;2024-01-30T05:47:23;101912.63;;;20.45;60.04
13709;BME280;54933;51.908;7.730;2024-01-30T05:49:48;101910.13;;;20.43;59.98
13709;BME280;54933;51.908;7.730;2024-01-30T05:52:13;101918.03;;;20.45;59.94
13709;BME280;54933;51.908;7.730;2024-01-30T05:54:40;101921.97;;;20.42;60.15
13709;BME280;54933;51.908;7.730;2024-01-30T05:57:05;101924.66;;;20.42;60.05
13709;BME280;54933;51.908;7.730;2024-01-30T05:59:31;101917.38;;;20.43;60.09
13709;BME280;54933;51.908;7.730;2024-01-30T06:01:57;101928.34;;;20.41;60.09
13709;BME280;54933;51.908;7.730;2024-01-30T06:04:22;101931.06;;;20.41;60.06
13709;BME280;54933;51.908;7.730;2024-01-30T06:06:48;101928.34;;;20.41;60.08
13709;BME280;54933;51.908;7.730;2024-01-30T06:09:13;101920.25;;;20.41;60.22
13709;BME280;54933;51.908;7.730;2024-01-30T06:11:39;101928.34;;;20.41;60.11
13709;BME280;54933;51.908;7.730;2024-01-30T06:14:04;101920.25;;;20.41;60.00
13709;BME280;54933;51.908;7.730;2024-01-30T06:16:29;101921.28;;;20.40;60.07
13709;BME280;54933;51.908;7.730;2024-01-30T06:18:55;101909.66;;;20.40;60.04
13709;BME280;54933;51.908;7.730;2024-01-30T06:21:21;101907.81;;;20.40;60.13
13709;BME280;54933;51.908;7.730;2024-01-30T06:23:46;101913.19;;;20.40;60.22
13709;BME280;54933;51.908;7.730;2024-01-30T06:26:11;101905.09;;;20.40;60.31
13709;BME280;54933;51.908;7.730;2024-01-30T06:28:37;101899.69;;;20.40;60.23
13709;BME280;54933;51.908;7.730;2024-01-30T06:31:02;101913.19;;;20.40;60.21
13709;BME280;54933;51.908;7.730;2024-01-30T06:33:28;101909.66;;;20.40;60.28
13709;BME280;54933;51.908;7.730;2024-01-30T06:35:53;101920.44;;;20.40;60.15
13709;BME280;54933;51.908;7.730;2024-01-30T06:38:18;101921.28;;;20.40;60.39
13709;BME280;54933;51.908;7.730;2024-01-30T06:40:44;101917.75;;;20.40;60.41
13709;BME280;54933;51.908;7.730;2024-01-30T06:43:09;101915.34;;;20.45;60.71
13709;BME280;54933;51.908;7.730;2024-01-30T06:45:34;101910.06;;;20.14;59.67
13709;BME280;54933;51.908;7.730;2024-01-30T06:48:00;101918.09;;;20.22;58.59
13709;BME280;54933;51.908;7.730;2024-01-30T06:50:28;101916.72;;;20.26;58.33
13709;BME280;54933;51.908;7.730;2024-01-30T06:52:53;101922.75;;;20.28;58.79
13709;BME280;54933;51.908;7.730;2024-01-30T06:55:19;101931.53;;;20.30;59.05
13709;BME280;54933;51.908;7.730;2024-01-30T06:57:44;101926.78;;;20.32;59.42
13709;BME280;54933;51.908;7.730;2024-01-30T07:00:10;101922.41;;;20.31;59.82
13709;BME280;54933;51.908;7.730;2024-01-30T07:02:35;101928.63;;;20.32;60.05
13709;BME280;54933;51.908;7.730;2024-01-30T07:05:01;101919.53;;;20.33;60.11
13709;BME280;54933;51.908;7.730;2024-01-30T07:07:26;101924.09;;;20.32;60.17
13709;BME280;54933;51.908;7.730;2024-01-30T07:09:52;101923.03;;;20.33;60.02
13709;BME280;54933;51.908;7.730;2024-01-30T07:12:21;101925.75;;;20.33;60.39
13709;BME280;54933;51.908;7.730;2024-01-30T07:14:46;101927.44;;;20.34;60.41
13709;BME280;54933;51.908;7.730;2024-01-30T07:17:12;101916.66;;;20.34;60.71
13709;BME280;54933;51.908;7.730;2024-01-30T07:19:37;101917.47;;;20.35;60.71
13709;BME280;54933;51.908;7.730;2024-01-30T07:22:03;101911.25;;;20.34;60.74
13709;BME280;54933;51.908;7.730;2024-01-30T07:24:28;101916.66;;;20.34;60.78
13709;BME280;54933;51.908;7.730;2024-01-30T07:26:53;101920.16;;;20.35;60.64
13709;BME280;54933;51.908;7.730;2024-01-30T07:29:19;101916.66;;;20.34;60.69
13709;BME280;54933;51.908;7.730;2024-01-30T07:31:44;101910.31;;;20.27;59.71
13709;BME280;54933;51.908;7.730;2024-01-30T07:34:09;101921.75;;;20.29;59.64
13709;BME280;54933;51.908;7.730;2024-01-30T07:36:35;101917.19;;;20.30;59.83
13709;BME280;54933;51.908;7.730;2024-01-30T07:39:00;101919.06;;;20.29;59.84
13709;BME280;54933;51.908;7.730;2024-01-30T07:41:26;101918.88;;;20.31;60.03
13709;BME280;54933;51.908;7.730;2024-01-30T07:43:51;101922.41;;;20.31;60.14
13709;BME280;54933;51.908;7.730;2024-01-30T07:46:18;101922.41;;;20.31;60.36
13709;BME280;54933;51.908;7.730;2024-01-30T07:48:43;101923.25;;;20.32;60.42
13709;BME280;54933;51.908;7.730;2024-01-30T07:51:09;101926.78;;;20.32;60.34
13709;BME280;54933;51.908;7.730;2024-01-30T07:53:34;101937.59;;;20.32;60.55
13709;BME280;54933;51.908;7.730;2024-01-30T07:55:59;101936.53;;;20.33;60.54
13709;BME280;54933;51.908;7.730;2024-01-30T07:58:24;101935.53;;;20.34;60.69
13709;BME280;54933;51.908;7.730;2024-01-30T08:00:52;101938.25;;;20.34;60.68
13709;BME280;54933;51.908;7.730;2024-01-30T08:03:18;101943.63;;;20.34;60.46
13709;BME280;54933;51.908;7.730;2024-01-30T08:05:43;101938.44;;;20.33;60.64
13709;BME280;54933;51.908;7.730;2024-01-30T08:08:08;101935.53;;;20.34;60.71
13709;BME280;54933;51.908;7.730;2024-01-30T08:10:33;101945.31;;;20.35;60.93
13709;BME280;54933;51.908;7.730;2024-01-30T08:12:59;101945.31;;;20.35;60.62
13709;BME280;54933;51.908;7.730;2024-01-30T08:15:24;101945.31;;;20.35;60.47
13709;BME280;54933;51.908;7.730;2024-01-30T08:17:49;101941.75;;;20.35;60.49
13709;BME280;54933;51.908;7.730;2024-01-30T08:20:15;101946.97;;;20.36;60.49
13709;BME280;54933;51.908;7.730;2024-01-30T08:22:40;101941.56;;;20.36;60.75
13709;BME280;54933;51.908;7.730;2024-01-30T08:25:06;101948.66;;;20.37;60.65
13709;BME280;54933;51.908;7.730;2024-01-30T08:27:32;101944.28;;;20.36;60.40
13709;BME280;54933;51.908;7.730;2024-01-30T08:29:57;101948.66;;;20.37;60.40
13709;BME280;54933;51.908;7.730;2024-01-30T08:32:22;101954.06;;;20.37;60.61
13709;BME280;54933;51.908;7.730;2024-01-30T08:34:48;101947.81;;;20.37;60.46
13709;BME280;54933;51.908;7.730;2024-01-30T08:37:14;101935.16;;;20.37;60.70
13709;BME280;54933;51.908;7.730;2024-01-30T08:39:41;101949.50;;;20.38;60.50
13709;BME280;54933;51.908;7.730;2024-01-30T08:42:06;101945.97;;;20.37;61.09
13709;BME280;54933;51.908;7.730;2024-01-30T08:44:33;101945.78;;;20.39;60.37
13709;BME280;54933;51.908;7.730;2024-01-30T08:46:58;101943.28;;;20.37;60.91
13709;BME280;54933;51.908;7.730;2024-01-30T08:49:23;101944.94;;;20.38;60.44
13709;BME280;54933;51.908;7.730;2024-01-30T08:51:48;101946.63;;;20.39;60.50
13709;BME280;54933;51.908;7.730;2024-01-30T08:54:15;101950.34;;;20.38;60.38
13709;BME280;54933;51.908;7.730;2024-01-30T08:56:40;101946.63;;;20.39;60.51
13709;BME280;54933;51.908;7.730;2024-01-30T08:59:05;101945.59;;;20.40;60.30
13709;BME280;54933;51.908;7.730;2024-01-30T09:01:31;101954.72;;;20.39;60.44
13709;BME280;54933;51.908;7.730;2024-01-30T09:03:56;101948.28;;;20.40;60.42
13709;BME280;54933;51.908;7.730;2024-01-30T09:06:21;101953.88;;;20.39;60.33
13709;BME280;54933;51.908;7.730;2024-01-30T09:08:47;101951.84;;;20.41;60.44
13709;BME280;54933;51.908;7.730;2024-01-30T09:11:14;101957.25;;;20.41;60.31
13709;BME280;54933;51.908;7.730;2024-01-30T09:13:40;101956.38;;;20.40;60.28
13709;BME280;54933;51.908;7.730;2024-01-30T09:16:05;101952.66;;;20.41;60.39
13709;BME280;54933;51.908;7.730;2024-01-30T09:18:31;101952.66;;;20.41;60.21
13709;BME280;54933;51.908;7.730;2024-01-30T09:20:56;101950.81;;;20.42;60.28
13709;BME280;54933;51.908;7.730;2024-01-30T09:23:22;101955.34;;;20.41;60.33
13709;BME280;54933;51.908;7.730;2024-01-30T09:25:47;101955.16;;;20.43;60.29
13709;BME280;54933;51.908;7.730;2024-01-30T09:28:12;101965.81;;;20.44;59.98
13709;BME280;54933;51.908;7.730;2024-01-30T09:30:38;101957.88;;;20.43;60.17
13709;BME280;54933;51.908;7.730;2024-01-30T09:33:03;101957.06;;;20.42;60.17
13709;BME280;54933;51.908;7.730;2024-01-30T09:35:28;101957.88;;;20.43;60.11
13709;BME280;54933;51.908;7.730;2024-01-30T09:37:55;101953.31;;;20.43;60.35
13709;BME280;54933;51.908;7.730;2024-01-30T09:40:20;101952.47;;;20.43;60.15
13709;BME280;54933;51.908;7.730;2024-01-30T09:42:50;101958.72;;;20.43;60.16
13709;BME280;54933;51.908;7.730;2024-01-30T09:45:18;101960.41;;;20.44;59.99
13709;BME280;54933;51.908;7.730;2024-01-30T09:47:44;101957.88;;;20.43;60.15
13709;BME280;54933;51.908;7.730;2024-01-30T09:50:11;101970.00;;;20.47;60.22
13709;BME280;54933;51.908;7.730;2024-01-30T09:52:37;101964.78;;;20.45;60.38
13709;BME280;54933;51.908;7.730;2024-01-30T09:55:03;101975.41;;;20.47;60.21
13709;BME280;54933;51.908;7.730;2024-01-30T09:57:28;101969.16;;;20.46;60.10
13709;BME280;54933;51.908;7.730;2024-01-30T09:59:54;101970.84;;;20.47;60.17
13709;BME280;54933;51.908;7.730;2024-01-30T10:02:19;101973.53;;;20.47;60.04
13709;BME280;54933;51.908;7.730;2024-01-30T10:04:48;101965.44;;;20.47;60.22
13709;BME280;54933;51.908;7.730;2024-01-30T10:07:14;101965.44;;;20.47;60.03
13709;BME280;54933;51.908;7.730;2024-01-30T10:09:39;101966.25;;;20.48;60.00
13709;BME280;54933;51.908;7.730;2024-01-30T10:12:05;101967.09;;;20.48;60.19
13709;BME280;54933;51.908;7.730;2024-01-30T10:14:31;101972.50;;;20.48;60.12
13709;BME280;54933;51.908;7.730;2024-01-30T10:16:57;101972.50;;;20.48;60.17
13709;BME280;54933;51.908;7.730;2024-01-30T10:19:23;101963.38;;;20.49;60.20
13709;BME280;54933;51.908;7.730;2024-01-30T10:21:48;101950.91;;;20.48;60.22
13709;BME280;54933;51.908;7.730;2024-01-30T10:24:14;101953.59;;;20.48;60.15
13709;BME280;54933;51.908;7.730;2024-01-30T10:26:39;101947.16;;;20.49;60.19
13709;BME280;54933;51.908;7.730;2024-01-30T10:29:05;101936.38;;;20.49;60.14
13709;BME280;54933;51.908;7.730;2024-01-30T10:31:30;101945.31;;;20.50;60.26
13709;BME280;54933;51.908;7.730;2024-01-30T10:33:56;101933.69;;;20.49;60.16
13709;BME280;54933;51.908;7.730;2024-01-30T10:36:28;101945.50;;;20.48;60.09
13709;BME280;54933;51.908;7.730;2024-01-30T10:38:55;101945.31;;;20.50;59.99
13709;BME280;54933;51.908;7.730;2024-01-30T10:41:26;101946.16;;;20.50;60.01
13709;BME280;54933;51.908;7.730;2024-01-30T10:44:02;101948.88;;;20.50;60.11
13709;BME280;54933;51.908;7.730;2024-01-30T10:46:30;101955.28;;;20.49;60.01
13709;BME280;54933;51.908;7.730;2024-01-30T10:49:00;101954.28;;;20.50;60.07
13709;BME280;54933;51.908;7.730;2024-01-30T10:51:28;101954.28;;;20.50;60.29
13709;BME280;54933;51.908;7.730;2024-01-30T10:53:55;101966.06;;;20.49;59.96
13709;BME280;54933;51.908;7.730;2024-01-30T10:56:21;101965.06;;;20.50;60.25
13709;BME280;54933;51.908;7.730;2024-01-30T10:58:49;101961.53;;;20.50;60.05
13709;BME280;54933;51.908;7.730;2024-01-30T11:01:15;101954.28;;;20.50;60.06
13709;BME280;54933;51.908;7.730;2024-01-30T11:03:41;101954.28;;;20.50;59.97
13709;BME280;54933;51.908;7.730;2024-01-30T11:06:10;101960.53;;;20.51;60.05
13709;BME280;54933;51.908;7.730;2024-01-30T11:08:36;101961.34;;;20.51;60.00
13709;BME280;54933;51.908;7.730;2024-01-30T11:11:01;101954.28;;;20.50;60.05
13709;BME280;54933;51.908;7.730;2024-01-30T11:13:29;101955.13;;;20.51;59.95
13709;BME280;54933;51.908;7.730;2024-01-30T11:15:54;101955.94;;;20.51;60.09
13709;BME280;54933;51.908;7.730;2024-01-30T11:18:26;101947.84;;;20.51;59.97
13709;BME280;54933;51.908;7.730;2024-01-30T11:20:56;101954.09;;;20.52;60.11
13709;BME280;54933;51.908;7.730;2024-01-30T11:23:22;101961.34;;;20.51;59.91
13709;BME280;54933;51.908;7.730;2024-01-30T11:25:48;101953.22;;;20.51;60.00
13709;BME280;54933;51.908;7.730;2024-01-30T11:28:16;101952.22;;;20.52;59.81
13709;BME280;54933;51.908;7.730;2024-01-30T11:30:41;101947.84;;;20.51;60.12
13709;BME280;54933;51.908;7.730;2024-01-30T11:33:11;101952.22;;;20.52;60.15
13709;BME280;54933;51.908;7.730;2024-01-30T11:35:41;101956.78;;;20.52;59.96
13709;BME280;54933;51.908;7.730;2024-01-30T11:38:09;101954.94;;;20.52;60.19
13709;BME280;54933;51.908;7.730;2024-01-30T11:40:37;101965.72;;;20.52;60.03
13709;BME280;54933;51.908;7.730;2024-01-30T11:43:03;101954.94;;;20.52;60.41
13709;BME280;54933;51.908;7.730;2024-01-30T11:45:32;101952.22;;;20.52;59.98
13709;BME280;54933;51.908;7.730;2024-01-30T11:47:58;101950.53;;;20.51;59.93
13709;BME280;54933;51.908;7.730;2024-01-30T11:50:29;101957.63;;;20.52;60.18
13709;BME280;54933;51.908;7.730;2024-01-30T11:52:55;101956.78;;;20.52;60.04
13709;BME280;54933;51.908;7.730;2024-01-30T11:55:20;101954.94;;;20.52;59.99
13709;BME280;54933;51.908;7.730;2024-01-30T11:57:45;101955.75;;;20.53;60.08
13709;BME280;54933;51.908;7.730;2024-01-30T12:00:17;101959.28;;;20.53;60.34
13709;BME280;54933;51.908;7.730;2024-01-30T12:02:44;101956.59;;;20.53;60.29
13709;BME280;54933;51.908;7.730;2024-01-30T12:05:09;101957.63;;;20.52;60.08
13709;BME280;54933;51.908;7.730;2024-01-30T12:07:34;101959.28;;;20.53;60.07
13709;BME280;54933;51.908;7.730;2024-01-30T12:10:00;101963.03;;;20.52;60.06
13709;BME280;54933;51.908;7.730;2024-01-30T12:12:26;101964.69;;;20.53;60.03
13709;BME280;54933;51.908;7.730;2024-01-30T12:14:52;101970.09;;;20.53;59.96
13709;BME280;54933;51.908;7.730;2024-01-30T12:17:31;101970.94;;;20.54;59.90
13709;BME280;54933;51.908;7.730;2024-01-30T12:20:07;101975.50;;;20.53;60.19
13709;BME280;54933;51.908;7.730;2024-01-30T12:22:36;101968.44;;;20.52;60.20
13709;BME280;54933;51.908;7.730;2024-01-30T12:25:05;101969.25;;;20.53;60.15
13709;BME280;54933;51.908;7.730;2024-01-30T12:27:30;101964.69;;;20.53;60.01
13709;BME280;54933;51.908;7.730;2024-01-30T12:29:59;101978.19;;;20.53;60.19
13709;BME280;54933;51.908;7.730;2024-01-30T12:32:24;101973.66;;;20.54;60.08
13709;BME280;54933;51.908;7.730;2024-01-30T12:34:49;101986.28;;;20.53;60.16
13709;BME280;54933;51.908;7.730;2024-01-30T12:37:15;101975.50;;;20.53;60.14
13709;BME280;54933;51.908;7.730;2024-01-30T12:39:45;101978.19;;;20.53;60.22
13709;BME280;54933;51.908;7.730;2024-01-30T12:42:10;101977.16;;;20.54;60.28